Time;durP1;ratioP1;P1;durP2;ratioP2;P2;SDS_P1;SDS_P2;PMS_P1;PMS_P2;Temp;Humidity;BMP_temperature;BMP_pressure;BME280_temperature;BME280_humidity;BME280_pressure;Samples;Min_cycle;Max_cycle;Signal;HPM_P1;HPM_P2
2022/10/24 00:01:41;;;;;;;0.00;0.00;;;15.70;99.90;;;;;;5098717;28;20051;-79
2022/10/24 00:04:06;;;;;;;0.00;0.00;;;15.70;99.90;;;;;;5099029;28;20032;-79
2022/10/24 00:06:32;;;;;;;0.17;0.15;;;15.70;99.90;;;;;;5115938;28;20047;-80
2022/10/24 00:08:58;;;;;;;0.00;0.00;;;15.80;99.90;;;;;;5098659;28;20069;-80
2022/10/24 00:11:27;;;;;;;0.10;0.00;;;15.70;99.90;;;;;;5098282;28;20091;-80
2022/10/24 00:13:55;;;;;;;0.00;0.00;;;15.60;99.90;;;;;;5098303;28;20537;-80
2022/10/24 00:16:21;;;;;;;0.00;0.00;;;15.70;99.90;;;;;;5098467;28;20043;-80
2022/10/24 00:18:47;;;;;;;0.00;0.00;;;15.70;99.90;;;;;;5098470;28;20051;-80
2022/10/24 00:21:13;;;;;;;0.00;0.00;;;15.70;99.90;;;;;;5115639;28;20110;-80
2022/10/24 00:23:38;;;;;;;0.00;0.00;;;15.70;99.90;;;;;;5115389;28;20475;-80
2022/10/24 00:26:05;;;;;;;0.28;0.28;;;15.60;99.90;;;;;;5098147;28;20483;-79
2022/10/24 00:28:33;;;;;;;0.00;0.00;;;15.60;99.90;;;;;;5115177;28;20424;-80
2022/10/24 00:30:58;;;;;;;0.00;0.00;;;15.50;99.90;;;;;;5115028;28;20043;-80
2022/10/24 00:33:24;;;;;;;0.00;0.00;;;15.50;99.90;;;;;;5098010;28;20035;-80
2022/10/24 00:35:50;;;;;;;0.00;0.00;;;15.50;99.90;;;;;;5115043;28;20063;-80
2022/10/24 00:38:16;;;;;;;0.00;0.00;;;15.50;99.90;;;;;;5097860;28;20500;-79
2022/10/24 00:40:42;;;;;;;0.00;0.00;;;15.40;99.90;;;;;;5115106;28;20048;-80
2022/10/24 00:43:20;;;;;;;0.10;0.08;;;15.40;99.90;;;;;;5114807;28;20040;-80
2022/10/24 00:45:47;;;;;;;0.00;0.00;;;15.40;99.90;;;;;;5097871;28;20051;-79
2022/10/24 00:48:28;;;;;;;0.00;0.00;;;15.30;99.90;;;;;;5097987;28;20086;-80
2022/10/24 00:51:01;;;;;;;0.00;0.00;;;15.30;99.90;;;;;;5113953;28;20555;-79
2022/10/24 00:53:28;;;;;;;0.00;0.00;;;15.30;99.90;;;;;;5114771;28;20100;-80
2022/10/24 00:55:58;;;;;;;0.30;0.30;;;15.30;99.90;;;;;;5097659;28;20056;-79
2022/10/24 00:58:27;;;;;;;0.00;0.00;;;15.30;99.90;;;;;;5097537;28;20047;-79
2022/10/24 01:00:54;;;;;;;0.00;0.00;;;15.30;99.90;;;;;;5114622;28;20042;-80
2022/10/24 01:03:20;;;;;;;0.00;0.00;;;15.30;99.90;;;;;;5097389;28;20096;-79
2022/10/24 01:06:17;;;;;;;0.00;0.00;;;15.20;99.90;;;;;;5098099;28;20428;-80
2022/10/24 01:09:03;;;;;;;0.00;0.00;;;15.30;99.90;;;;;;5097363;28;20101;-80
2022/10/24 01:11:45;;;;;;;0.00;0.00;;;15.40;99.90;;;;;;5055899;28;20141;-80
2022/10/24 01:14:29;;;;;;;0.57;0.22;;;15.40;99.90;;;;;;5055708;28;20420;-80
2022/10/24 01:17:08;;;;;;;0.00;0.00;;;15.40;99.90;;;;;;5056353;28;20056;-81
2022/10/24 01:20:11;;;;;;;1.85;0.43;;;15.50;99.90;;;;;;5056183;28;20059;-80
2022/10/24 01:22:58;;;;;;;1.15;0.38;;;15.50;99.90;;;;;;4980258;28;20057;-80
2022/10/24 01:25:42;;;;;;;0.00;0.00;;;15.50;99.90;;;;;;4980494;28;20437;-80
2022/10/24 01:28:24;;;;;;;0.20;0.10;;;15.40;99.90;;;;;;4980089;28;20095;-81
2022/10/24 01:31:02;;;;;;;0.00;0.00;;;15.50;99.90;;;;;;4980681;28;20056;-80
2022/10/24 01:33:54;;;;;;;0.00;0.00;;;15.50;99.90;;;;;;4996109;28;20603;-80
2022/10/24 01:36:38;;;;;;;0.00;0.00;;;15.40;99.90;;;;;;4995855;28;20049;-80
2022/10/24 01:39:11;;;;;;;0.00;0.00;;;15.40;99.90;;;;;;4996369;28;20123;-80
2022/10/24 01:41:40;;;;;;;0.22;0.22;;;15.40;99.90;;;;;;4980123;28;20406;-80
2022/10/24 01:44:13;;;;;;;0.00;0.00;;;15.30;99.90;;;;;;4980020;28;20057;-81
2022/10/24 01:46:45;;;;;;;7.88;0.57;;;15.30;99.90;;;;;;4996779;28;20069;-80
2022/10/24 01:49:20;;;;;;;0.43;0.32;;;15.20;99.90;;;;;;5024324;28;20474;-80
2022/10/24 01:51:47;;;;;;;;;;;15.20;99.90;;;;;;5039375;28;20064;-80
2022/10/24 01:54:14;;;;;;;0.95;0.55;;;15.20;99.90;;;;;;5038572;28;19927;-80
2022/10/24 01:56:39;;;;;;;5.68;0.98;;;15.10;99.90;;;;;;5055473;28;20098;-80
2022/10/24 01:59:27;;;;;;;0.00;0.00;;;15.10;99.90;;;;;;5089339;28;20049;-80
2022/10/24 02:02:05;;;;;;;0.17;0.17;;;15.10;99.90;;;;;;5096685;28;20152;-80
2022/10/24 02:04:36;;;;;;;0.00;0.00;;;15.10;99.90;;;;;;5096371;28;20054;-80
2022/10/24 02:07:06;;;;;;;0.00;0.00;;;15.00;99.90;;;;;;5096561;28;20059;-80
2022/10/24 02:09:33;;;;;;;0.60;0.52;;;15.20;99.90;;;;;;5113342;28;20085;-80
2022/10/24 02:12:00;;;;;;;0.47;0.28;;;15.10;99.90;;;;;;5113462;28;20100;-80
2022/10/24 02:14:56;;;;;;;0.00;0.00;;;15.00;99.90;;;;;;5096193;28;20052;-80
2022/10/24 02:17:22;;;;;;;0.03;0.00;;;15.10;99.90;;;;;;5113615;28;20048;-80
2022/10/24 02:19:48;;;;;;;0.10;0.10;;;15.10;99.90;;;;;;5113373;28;20147;-80
2022/10/24 02:22:18;;;;;;;0.00;0.00;;;15.20;99.90;;;;;;5113504;28;20138;-81
2022/10/24 02:25:11;;;;;;;0.10;0.00;;;15.20;99.90;;;;;;5096195;28;20134;-80
2022/10/24 02:27:42;;;;;;;0.00;0.00;;;15.20;99.90;;;;;;5096781;28;20134;-80
2022/10/24 02:30:15;;;;;;;0.00;0.00;;;15.20;99.90;;;;;;5113572;28;20050;-80
2022/10/24 02:32:45;;;;;;;0.00;0.00;;;15.20;99.90;;;;;;5096191;28;20040;-80
2022/10/24 02:35:15;;;;;;;0.55;0.32;;;15.20;99.90;;;;;;5096099;28;20484;-80
2022/10/24 02:37:46;;;;;;;0.00;0.00;;;15.30;99.90;;;;;;5113097;28;20047;-80
2022/10/24 02:40:14;;;;;;;0.00;0.00;;;15.30;99.90;;;;;;5096097;28;20095;-79
2022/10/24 02:42:43;;;;;;;0.00;0.00;;;15.30;99.90;;;;;;5113145;28;20047;-80
2022/10/24 02:45:11;;;;;;;0.00;0.00;;;15.40;99.90;;;;;;5096081;28;20101;-80
2022/10/24 02:47:39;;;;;;;0.10;0.10;;;15.40;99.90;;;;;;5096183;28;20499;-80
2022/10/24 02:50:05;;;;;;;0.00;0.00;;;15.40;99.90;;;;;;5096037;28;20112;-80
2022/10/24 02:52:32;;;;;;;3.40;0.68;;;15.50;99.90;;;;;;5113082;28;20442;-80
2022/10/24 02:54:57;;;;;;;0.05;0.03;;;15.50;99.90;;;;;;5112900;28;20380;-80
2022/10/24 02:57:25;;;;;;;0.00;0.00;;;15.50;99.90;;;;;;5096179;28;20049;-80
2022/10/24 02:59:52;;;;;;;0.00;0.00;;;15.60;99.90;;;;;;5112684;28;20048;-80
2022/10/24 03:02:18;;;;;;;0.47;0.20;;;15.50;99.90;;;;;;5096100;28;20036;-80
2022/10/24 03:04:44;;;;;;;0.20;0.15;;;15.50;99.90;;;;;;5095833;28;20087;-80
2022/10/24 03:07:09;;;;;;;1.85;0.45;;;15.50;99.90;;;;;;5096096;28;20086;-80
2022/10/24 03:09:35;;;;;;;2.60;0.75;;;15.40;99.90;;;;;;5112958;28;20051;-80
2022/10/24 03:12:01;;;;;;;0.00;0.00;;;15.50;99.90;;;;;;5096164;28;20051;-80
2022/10/24 03:14:26;;;;;;;0.90;0.25;;;15.50;99.90;;;;;;5114127;28;20062;-80
2022/10/24 03:16:52;;;;;;;0.85;0.45;;;15.50;99.90;;;;;;5116273;28;20046;-80
2022/10/24 03:19:18;;;;;;;0.00;0.00;;;15.40;99.90;;;;;;5116859;28;20035;-80
2022/10/24 03:21:44;;;;;;;0.00;0.00;;;15.40;99.90;;;;;;5116814;28;20070;-80
2022/10/24 03:24:09;;;;;;;0.47;0.10;;;15.40;99.90;;;;;;5116433;28;20039;-81
2022/10/24 03:26:35;;;;;;;0.00;0.00;;;15.40;99.90;;;;;;5099448;28;20142;-80
2022/10/24 03:29:00;;;;;;;0.00;0.00;;;15.30;99.90;;;;;;5099381;28;20140;-80
2022/10/24 03:31:27;;;;;;;0.15;0.03;;;15.40;99.90;;;;;;5116964;28;20036;-80
2022/10/24 03:33:53;;;;;;;0.00;0.00;;;15.40;99.90;;;;;;5116041;28;20131;-81
2022/10/24 03:36:19;;;;;;;0.00;0.00;;;15.50;99.90;;;;;;5115804;28;20091;-80
2022/10/24 03:38:44;;;;;;;0.00;0.00;;;15.60;99.90;;;;;;5116504;28;20071;-80
2022/10/24 03:41:10;;;;;;;0.20;0.17;;;15.60;99.90;;;;;;5116114;28;20040;-80
2022/10/24 03:43:35;;;;;;;0.20;0.20;;;15.70;99.90;;;;;;5115952;28;20043;-81
2022/10/24 03:46:01;;;;;;;0.00;0.00;;;15.70;99.90;;;;;;5115987;28;20082;-81
2022/10/24 03:48:27;;;;;;;0.00;0.00;;;15.70;99.90;;;;;;5098830;28;20055;-80
2022/10/24 03:50:52;;;;;;;0.88;0.30;;;15.70;99.90;;;;;;5116084;28;20032;-80
2022/10/24 03:53:18;;;;;;;0.00;0.00;;;15.80;99.90;;;;;;5115772;28;20047;-80
2022/10/24 03:55:44;;;;;;;0.00;0.00;;;15.70;99.90;;;;;;5098655;28;20491;-81
2022/10/24 03:58:09;;;;;;;4.18;0.88;;;15.70;99.90;;;;;;5098884;28;20513;-81
2022/10/24 04:00:39;;;;;;;0.00;0.00;;;15.80;99.90;;;;;;5115740;28;20130;-81
2022/10/24 04:03:05;;;;;;;2.83;0.65;;;15.70;99.90;;;;;;5116308;28;20051;-81
2022/10/24 04:05:31;;;;;;;0.00;0.00;;;15.70;99.90;;;;;;5115683;28;20086;-80
2022/10/24 04:07:56;;;;;;;0.00;0.00;;;15.60;99.90;;;;;;5098242;28;20050;-81
2022/10/24 04:10:22;;;;;;;0.30;0.30;;;15.60;99.90;;;;;;5115028;28;20066;-81
2022/10/24 04:12:48;;;;;;;0.55;0.20;;;15.50;99.90;;;;;;5114887;28;20036;-81
2022/10/24 04:15:13;;;;;;;0.00;0.00;;;15.50;99.90;;;;;;5097954;28;20205;-80
2022/10/24 04:17:39;;;;;;;1.45;0.43;;;15.50;99.90;;;;;;5114941;28;20130;-81
2022/10/24 04:20:05;;;;;;;0.25;0.25;;;15.50;99.90;;;;;;5115066;28;20078;-80
2022/10/24 04:22:31;;;;;;;0.00;0.00;;;15.50;99.90;;;;;;5098059;28;20089;-81
2022/10/24 04:24:56;;;;;;;0.00;0.00;;;15.50;99.90;;;;;;5097746;28;20052;-81
2022/10/24 04:27:22;;;;;;;0.05;0.00;;;15.40;99.90;;;;;;5097219;28;20055;-80
2022/10/24 04:29:48;;;;;;;1.15;1.02;;;15.40;99.90;;;;;;5098246;28;20086;-80
2022/10/24 04:32:13;;;;;;;0.00;0.00;;;15.40;99.90;;;;;;5114756;28;20051;-80
2022/10/24 04:34:39;;;;;;;0.00;0.00;;;15.40;99.90;;;;;;5098170;28;20059;-80
2022/10/24 04:37:05;;;;;;;0.00;0.00;;;15.40;99.90;;;;;;5115339;28;20555;-79
2022/10/24 04:39:30;;;;;;;0.00;0.00;;;15.40;99.90;;;;;;5114734;28;20123;-80
2022/10/24 04:41:56;;;;;;;0.00;0.00;;;15.30;99.90;;;;;;5114849;28;20095;-80
2022/10/24 04:44:22;;;;;;;0.00;0.00;;;15.30;99.90;;;;;;5114226;28;20076;-80
2022/10/24 04:46:48;;;;;;;0.00;0.00;;;15.20;99.90;;;;;;5097514;28;20036;-80
2022/10/24 04:49:14;;;;;;;0.00;0.00;;;15.30;99.90;;;;;;5114083;28;20057;-80
2022/10/24 04:51:39;;;;;;;0.00;0.00;;;15.30;99.90;;;;;;5114836;28;20134;-81
2022/10/24 04:54:05;;;;;;;0.10;0.10;;;15.40;99.90;;;;;;5113737;28;20411;-80
2022/10/24 04:56:31;;;;;;;0.00;0.00;;;15.30;99.90;;;;;;5114474;28;20051;-81
2022/10/24 04:58:56;;;;;;;0.00;0.00;;;15.20;99.90;;;;;;5097130;28;20636;-80
2022/10/24 05:01:22;;;;;;;0.00;0.00;;;15.20;99.90;;;;;;5097527;28;20043;-79
2022/10/24 05:03:48;;;;;;;0.00;0.00;;;15.30;99.90;;;;;;5115236;28;20043;-80
2022/10/24 05:06:14;;;;;;;0.43;0.35;;;15.30;99.90;;;;;;5114496;28;20502;-79
2022/10/24 05:08:39;;;;;;;0.00;0.00;;;15.20;99.90;;;;;;5114179;28;20059;-79
2022/10/24 05:11:05;;;;;;;2.50;0.38;;;15.30;99.90;;;;;;5114252;28;20044;-80
2022/10/24 05:13:31;;;;;;;0.00;0.00;;;15.20;99.90;;;;;;5096720;28;20044;-80
2022/10/24 05:15:56;;;;;;;0.00;0.00;;;15.20;99.90;;;;;;5097489;28;20040;-80
2022/10/24 05:18:22;;;;;;;0.10;0.08;;;15.10;99.90;;;;;;5097309;28;20130;-80
2022/10/24 05:20:48;;;;;;;0.47;0.00;;;15.20;99.90;;;;;;5097350;28;20043;-80
2022/10/24 05:23:13;;;;;;;0.00;0.00;;;15.20;99.90;;;;;;5097037;28;20055;-80
2022/10/24 05:25:39;;;;;;;0.05;0.05;;;15.20;99.90;;;;;;5113988;28;20131;-80
2022/10/24 05:28:05;;;;;;;0.03;0.00;;;15.20;99.90;;;;;;5113618;28;20054;-80
2022/10/24 05:30:30;;;;;;;0.00;0.00;;;15.20;99.90;;;;;;5113929;28;20082;-80
2022/10/24 05:32:56;;;;;;;0.22;0.10;;;15.20;99.90;;;;;;5113273;28;20142;-80
2022/10/24 05:35:22;;;;;;;0.00;0.00;;;15.10;99.90;;;;;;5096707;28;20055;-80
2022/10/24 05:37:47;;;;;;;0.00;0.00;;;15.00;99.90;;;;;;5096700;28;20052;-80
2022/10/24 05:40:13;;;;;;;2.60;0.38;;;15.10;99.90;;;;;;5113046;28;20051;-80
2022/10/24 05:42:39;;;;;;;0.00;0.00;;;15.10;99.90;;;;;;5113375;28;20095;-80
2022/10/24 05:45:09;;;;;;;0.00;0.00;;;15.00;99.90;;;;;;5096226;28;20058;-79
2022/10/24 05:47:35;;;;;;;0.00;0.00;;;15.00;99.90;;;;;;5114169;28;20043;-80
2022/10/24 05:50:01;;;;;;;0.65;0.22;;;15.00;99.90;;;;;;5113625;28;20383;-80
2022/10/24 05:52:26;;;;;;;0.00;0.00;;;15.00;99.90;;;;;;5096307;28;20188;-80
2022/10/24 05:54:52;;;;;;;0.90;0.00;;;15.00;99.90;;;;;;5113629;28;20059;-80
2022/10/24 05:57:18;;;;;;;0.00;0.00;;;14.90;99.90;;;;;;5113230;28;20453;-80
2022/10/24 05:59:43;;;;;;;0.00;0.00;;;14.90;99.90;;;;;;5097357;28;20055;-80
2022/10/24 06:02:20;;;;;;;0.00;0.00;;;15.00;99.90;;;;;;5113494;28;20409;-79
2022/10/24 06:04:47;;;;;;;0.68;0.28;;;15.00;99.90;;;;;;5096391;28;20070;-80
2022/10/24 06:07:13;;;;;;;0.70;0.10;;;15.10;99.90;;;;;;5096337;28;20491;-80
2022/10/24 06:09:40;;;;;;;0.00;0.00;;;15.10;99.90;;;;;;5096172;28;20134;-80
2022/10/24 06:12:07;;;;;;;0.03;0.00;;;15.00;99.90;;;;;;5096542;28;20098;-80
2022/10/24 06:14:33;;;;;;;0.50;0.22;;;15.00;99.90;;;;;;5113298;28;20052;-79
2022/10/24 06:16:59;;;;;;;0.00;0.00;;;15.10;99.90;;;;;;5113400;28;20051;-80
2022/10/24 06:19:24;;;;;;;0.10;0.10;;;15.10;99.90;;;;;;5113594;28;20541;-80
2022/10/24 06:21:50;;;;;;;0.00;0.00;;;15.00;99.90;;;;;;5113259;28;20094;-79
2022/10/24 06:24:15;;;;;;;0.00;0.00;;;15.10;99.90;;;;;;5083534;28;20043;-81
2022/10/24 06:26:41;;;;;;;0.03;0.00;;;15.10;99.90;;;;;;5075892;28;20052;-81
2022/10/24 06:29:07;;;;;;;0.00;0.00;;;15.10;99.90;;;;;;5092856;28;20503;-81
2022/10/24 06:31:34;;;;;;;0.00;0.00;;;15.20;99.90;;;;;;5076523;28;20048;-80
2022/10/24 06:34:00;;;;;;;0.00;0.00;;;15.20;99.90;;;;;;5076006;28;20134;-81
2022/10/24 06:36:26;;;;;;;0.30;0.20;;;15.20;99.90;;;;;;5075922;28;20052;-81
2022/10/24 06:38:53;;;;;;;0.00;0.00;;;15.10;99.90;;;;;;5076283;28;20112;-82
2022/10/24 06:41:19;;;;;;;0.00;0.00;;;15.10;99.90;;;;;;5092890;28;20438;-81
2022/10/24 06:43:44;;;;;;;0.00;0.00;;;15.00;99.90;;;;;;5075826;28;20059;-81
2022/10/24 06:46:13;;;;;;;0.40;0.30;;;15.10;99.90;;;;;;5092859;28;20051;-81
2022/10/24 06:48:38;;;;;;;0.20;0.20;;;15.10;99.90;;;;;;5075948;28;20056;-81
2022/10/24 06:51:04;;;;;;;0.00;0.00;;;15.10;99.90;;;;;;5079777;28;20410;-80
2022/10/24 06:53:31;;;;;;;0.05;0.05;;;15.10;99.90;;;;;;5096383;28;20040;-81
2022/10/24 06:56:02;;;;;;;0.00;0.00;;;15.10;99.90;;;;;;5097276;28;20048;-81
2022/10/24 06:58:32;;;;;;;0.30;0.30;;;15.20;99.90;;;;;;5097124;28;20048;-81
2022/10/24 07:00:58;;;;;;;1.48;0.25;;;15.10;99.90;;;;;;5096900;28;20464;-81
2022/10/24 07:03:23;;;;;;;0.00;0.00;;;15.20;99.90;;;;;;5096440;28;20131;-81
2022/10/24 07:05:49;;;;;;;0.10;0.00;;;15.20;99.90;;;;;;5096413;28;20046;-81
2022/10/24 07:08:14;;;;;;;0.08;0.08;;;15.20;99.90;;;;;;5096743;28;20047;-81
2022/10/24 07:10:40;;;;;;;0.68;0.40;;;15.20;99.90;;;;;;5096487;28;20079;-80
2022/10/24 07:13:06;;;;;;;0.08;0.08;;;15.20;99.90;;;;;;5096048;28;20043;-81
2022/10/24 07:15:31;;;;;;;0.00;0.00;;;15.20;99.90;;;;;;5096219;28;20052;-80
2022/10/24 07:17:57;;;;;;;0.10;0.00;;;15.20;99.90;;;;;;5079250;28;20044;-80
2022/10/24 07:20:22;;;;;;;0.00;0.00;;;15.30;99.90;;;;;;5096128;28;20040;-81
2022/10/24 07:22:48;;;;;;;0.25;0.25;;;15.30;99.90;;;;;;5096809;28;20040;-81
2022/10/24 07:25:14;;;;;;;0.00;0.00;;;15.20;99.90;;;;;;5079239;28;20044;-81
2022/10/24 07:27:40;;;;;;;0.03;0.03;;;15.30;99.90;;;;;;5078997;28;20133;-81
2022/10/24 07:30:07;;;;;;;0.00;0.00;;;15.30;99.90;;;;;;5095697;28;20056;-81
2022/10/24 07:32:33;;;;;;;0.00;0.00;;;15.40;99.90;;;;;;5095717;28;20047;-81
2022/10/24 07:34:59;;;;;;;0.22;0.22;;;15.50;99.90;;;;;;5078690;28;20058;-81
2022/10/24 07:37:25;;;;;;;0.50;0.05;;;15.60;99.90;;;;;;5096652;28;20040;-81
2022/10/24 07:39:51;;;;;;;0.45;0.20;;;15.70;99.90;;;;;;5095381;28;20387;-80
2022/10/24 07:42:17;;;;;;;0.00;0.00;;;15.80;99.90;;;;;;5078544;28;20139;-81
2022/10/24 07:44:43;;;;;;;0.15;0.00;;;15.90;99.90;;;;;;5095672;28;20430;-81
2022/10/24 07:47:10;;;;;;;0.00;0.00;;;16.00;99.90;;;;;;5095913;28;20428;-81
2022/10/24 07:49:36;;;;;;;0.00;0.00;;;16.20;99.90;;;;;;5095707;28;20055;-81
2022/10/24 07:52:02;;;;;;;0.00;0.00;;;16.20;99.90;;;;;;5096304;28;20075;-81
2022/10/24 07:54:28;;;;;;;0.43;0.43;;;16.20;99.90;;;;;;5078703;28;20475;-82
2022/10/24 07:56:54;;;;;;;0.00;0.00;;;16.20;99.90;;;;;;5078604;28;20396;-82
2022/10/24 07:59:20;;;;;;;0.90;0.20;;;16.10;99.90;;;;;;5095400;28;20036;-81
2022/10/24 08:01:45;;;;;;;0.10;0.10;;;16.10;99.90;;;;;;5078471;28;20556;-81
2022/10/24 08:04:12;;;;;;;0.13;0.05;;;16.30;99.90;;;;;;5078264;28;20048;-82
2022/10/24 08:06:41;;;;;;;0.00;0.00;;;16.50;99.90;;;;;;5095207;28;20051;-82
2022/10/24 08:09:07;;;;;;;0.00;0.00;;;16.50;99.90;;;;;;5095062;28;20059;-81
2022/10/24 08:11:33;;;;;;;0.00;0.00;;;16.40;99.90;;;;;;5095094;28;20079;-82
2022/10/24 08:14:01;;;;;;;0.00;0.00;;;16.50;99.90;;;;;;5094855;28;20505;-82
2022/10/24 08:16:27;;;;;;;0.20;0.20;;;16.50;99.90;;;;;;5077922;28;20133;-81
2022/10/24 08:18:55;;;;;;;0.10;0.08;;;16.40;99.90;;;;;;5076971;28;20091;-82
2022/10/24 08:21:21;;;;;;;0.00;0.00;;;16.50;99.90;;;;;;5095637;28;20050;-82
2022/10/24 08:23:50;;;;;;;1.75;0.52;;;16.80;99.90;;;;;;5078109;28;20036;-83
2022/10/24 08:26:18;;;;;;;0.13;0.13;;;17.30;99.90;;;;;;5095064;28;20062;-81
2022/10/24 08:28:45;;;;;;;1.67;0.68;;;17.90;99.90;;;;;;5077871;28;20097;-81
2022/10/24 08:31:14;;;;;;;0.00;0.00;;;18.50;99.90;;;;;;5096607;28;20094;-82
2022/10/24 08:33:41;;;;;;;0.00;0.00;;;19.30;99.90;;;;;;5077831;28;20068;-82
2022/10/24 08:36:19;;;;;;;0.00;0.00;;;20.00;99.90;;;;;;5093830;28;20056;-83
2022/10/24 08:38:45;;;;;;;0.00;0.00;;;20.80;99.90;;;;;;5094702;28;20055;-82
2022/10/24 08:41:42;;;;;;;0.00;0.00;;;21.50;99.90;;;;;;5088333;28;20051;-82
2022/10/24 08:44:26;;;;;;;0.00;0.00;;;21.70;99.90;;;;;;5040196;28;20060;-82
2022/10/24 08:47:00;;;;;;;0.70;0.52;;;21.00;99.90;;;;;;5057142;28;20041;-82
2022/10/24 08:49:28;;;;;;;0.45;0.45;;;20.20;99.90;;;;;;5055506;28;20111;-82
2022/10/24 08:51:56;;;;;;;0.15;0.15;;;19.50;99.90;;;;;;5056494;28;20051;-83
2022/10/24 08:54:28;;;;;;;0.00;0.00;;;18.80;99.90;;;;;;5038700;28;20610;-82
2022/10/24 08:56:56;;;;;;;0.00;0.00;;;19.10;99.90;;;;;;5056359;28;20480;-81
2022/10/24 08:59:24;;;;;;;0.20;0.20;;;19.40;99.90;;;;;;5039570;28;20044;-82
2022/10/24 09:02:17;;;;;;;0.10;0.10;;;19.60;99.90;;;;;;5038393;28;20442;-82
2022/10/24 09:04:51;;;;;;;0.00;0.00;;;20.00;99.90;;;;;;5053315;28;20063;-82
2022/10/24 09:07:19;;;;;;;0.00;0.00;;;20.50;99.90;;;;;;5056294;28;20062;-82
2022/10/24 09:09:48;;;;;;;0.00;0.00;;;20.10;99.90;;;;;;5056242;28;20089;-84
2022/10/24 09:12:17;;;;;;;0.00;0.00;;;19.60;99.90;;;;;;5055652;28;20048;-82
2022/10/24 09:14:45;;;;;;;0.00;0.00;;;19.10;99.90;;;;;;5055976;28;20056;-82
2022/10/24 09:17:22;;;;;;;0.10;0.00;;;18.60;99.90;;;;;;5039433;28;20084;-82
2022/10/24 09:19:57;;;;;;;1.75;0.68;;;18.40;99.90;;;;;;5050416;28;20138;-83
2022/10/24 09:22:26;;;;;;;0.00;0.00;;;18.40;99.90;;;;;;5097329;28;20050;-82
2022/10/24 09:24:57;;;;;;;0.60;0.30;;;19.00;99.90;;;;;;5113940;28;20043;-82
2022/10/24 09:27:29;;;;;;;0.00;0.00;;;19.20;99.90;;;;;;5097269;28;20070;-82
2022/10/24 09:29:57;;;;;;;0.22;0.22;;;19.40;99.90;;;;;;5097351;28;20467;-82
2022/10/24 09:32:26;;;;;;;0.10;0.10;;;19.30;99.90;;;;;;5096948;28;20051;-83
2022/10/24 09:34:53;;;;;;;0.80;0.45;;;19.20;99.90;;;;;;5113769;28;20052;-82
2022/10/24 09:37:54;;;;;;;0.00;0.00;;;18.90;99.90;;;;;;5114062;28;20043;-82
2022/10/24 09:40:37;;;;;;;0.00;0.00;;;18.70;99.90;;;;;;5055112;28;20060;-83
2022/10/24 09:43:17;;;;;;;0.00;0.00;;;18.70;99.90;;;;;;5037909;28;20055;-82
2022/10/24 09:46:04;;;;;;;0.00;0.00;;;18.90;99.90;;;;;;5055104;28;20055;-83
2022/10/24 09:48:50;;;;;;;0.20;0.20;;;18.80;99.90;;;;;;5054947;28;20504;-81
2022/10/24 09:51:40;;;;;;;0.00;0.00;;;18.60;99.90;;;;;;5055566;28;20052;-82
2022/10/24 09:54:17;;;;;;;0.30;0.10;;;18.40;99.90;;;;;;5054316;28;20112;-82
2022/10/24 09:56:46;;;;;;;0.25;0.20;;;18.20;99.90;;;;;;5055353;28;20067;-82
2022/10/24 09:59:39;;;;;;;0.03;0.03;;;18.00;99.90;;;;;;5038691;28;20052;-82
2022/10/24 10:02:25;;;;;;;0.35;0.15;;;17.80;99.90;;;;;;5065796;28;20057;-82
2022/10/24 10:05:03;;;;;;;0.03;0.03;;;17.70;99.90;;;;;;5038354;28;20151;-82
2022/10/24 10:07:34;;;;;;;0.00;0.00;;;17.60;99.90;;;;;;5038455;28;20186;-82
2022/10/24 10:10:20;;;;;;;0.00;0.00;;;17.60;99.90;;;;;;5038624;28;20049;-82
2022/10/24 10:12:58;;;;;;;0.05;0.05;;;17.40;99.90;;;;;;5038298;28;20395;-83
2022/10/24 10:15:37;;;;;;;0.10;0.10;;;17.30;99.90;;;;;;5064684;28;20055;-83
2022/10/24 10:18:22;;;;;;;0.20;0.20;;;17.20;99.90;;;;;;5093043;28;20044;-83
2022/10/24 10:21:17;;;;;;;0.22;0.10;;;17.20;99.90;;;;;;5092953;28;20621;-83
2022/10/24 10:23:45;;;;;;;;;;;17.10;99.90;;;;;;5076780;28;20093;-82
2022/10/24 10:26:20;;;;;;;0.00;0.00;;;17.00;99.90;;;;;;5079946;28;19920;-82
2022/10/24 10:28:51;;;;;;;0.00;0.00;;;17.00;99.90;;;;;;5080751;28;20131;-83
2022/10/24 10:31:21;;;;;;;0.00;0.00;;;16.90;99.90;;;;;;5097125;28;20408;-83
2022/10/24 10:33:52;;;;;;;2.83;0.80;;;16.60;99.90;;;;;;5096959;28;20091;-83
2022/10/24 10:36:38;;;;;;;0.00;0.00;;;16.50;99.90;;;;;;5096631;28;20048;-83
2022/10/24 10:39:30;;;;;;;0.00;0.00;;;16.30;99.90;;;;;;5097264;28;20051;-83
2022/10/24 10:42:01;;;;;;;0.00;0.00;;;16.20;99.90;;;;;;5097586;28;20088;-83
2022/10/24 10:44:36;;;;;;;0.00;0.00;;;16.10;99.90;;;;;;5079727;28;20086;-83
2022/10/24 10:47:47;;;;;;;0.00;0.00;;;16.10;99.90;;;;;;5081937;28;20084;-82
2022/10/24 10:50:30;;;;;;;2.33;0.75;;;16.10;99.90;;;;;;5038667;28;20507;-83
2022/10/24 10:53:18;;;;;;;0.00;0.00;;;16.50;99.90;;;;;;5041642;28;20047;-83
2022/10/24 10:56:10;;;;;;;0.00;0.00;;;16.60;99.90;;;;;;5041914;28;20517;-83
2022/10/24 10:59:01;;;;;;;0.00;0.00;;;16.70;99.90;;;;;;5055563;28;20500;-83
2022/10/24 11:01:35;;;;;;;0.00;0.00;;;17.00;99.90;;;;;;4998956;28;20050;-82
2022/10/24 11:04:30;;;;;;;0.00;0.00;;;17.30;99.90;;;;;;4998787;28;20512;-82
2022/10/24 11:07:19;;;;;;;0.00;0.00;;;17.50;99.90;;;;;;4998805;28;20061;-83
2022/10/24 11:09:48;;;;;;;0.00;0.00;;;17.70;99.90;;;;;;4998673;28;20058;-83
2022/10/24 11:12:18;;;;;;;2.05;0.57;;;17.60;99.90;;;;;;4982520;28;20050;-83
2022/10/24 11:15:01;;;;;;;0.10;0.10;;;17.60;99.90;;;;;;4983336;28;20529;-83
2022/10/24 11:17:53;;;;;;;0.13;0.10;;;17.80;99.90;;;;;;4998516;28;20465;-83
2022/10/24 11:20:29;;;;;;;0.00;0.00;;;17.90;99.90;;;;;;4980806;28;20060;-82
2022/10/24 11:23:10;;;;;;;0.25;0.10;;;17.90;99.90;;;;;;4999142;28;20049;-82
2022/10/24 11:25:47;;;;;;;0.00;0.00;;;17.90;99.90;;;;;;4998767;28;20054;-83
2022/10/24 11:28:28;;;;;;;0.20;0.20;;;17.90;99.90;;;;;;5037884;28;20045;-83
2022/10/24 11:31:12;;;;;;;0.10;0.10;;;18.10;99.90;;;;;;5037471;28;20051;-83
2022/10/24 11:33:46;;;;;;;0.00;0.00;;;18.30;99.90;;;;;;5020541;28;20042;-83
2022/10/24 11:36:22;;;;;;;0.00;0.00;;;18.40;99.90;;;;;;5017806;28;20069;-83
2022/10/24 11:38:58;;;;;;;0.00;0.00;;;18.50;99.90;;;;;;5051899;28;20487;-82
2022/10/24 11:41:45;;;;;;;0.00;0.00;;;18.70;99.90;;;;;;5095947;28;20051;-82
2022/10/24 11:44:25;;;;;;;0.05;0.00;;;18.70;99.90;;;;;;5079187;28;20044;-83
2022/10/24 11:47:22;;;;;;;0.00;0.00;;;18.50;99.90;;;;;;5078829;28;20094;-83
2022/10/24 11:50:02;;;;;;;0.00;0.00;;;18.40;99.90;;;;;;5077615;28;20109;-84
2022/10/24 11:52:34;;;;;;;0.40;0.00;;;18.30;99.90;;;;;;5077904;28;20178;-83
2022/10/24 11:55:15;;;;;;;0.03;0.03;;;18.50;99.90;;;;;;5060710;28;20052;-83
2022/10/24 11:57:44;;;;;;;0.00;0.00;;;18.40;99.90;;;;;;5077557;28;20051;-82
2022/10/24 12:00:46;;;;;;;0.10;0.10;;;18.20;99.90;;;;;;5077532;28;20063;-83
2022/10/24 12:03:33;;;;;;;0.00;0.00;;;18.10;99.90;;;;;;5060521;28;20476;-83
2022/10/24 12:05:58;;;;;;;0.00;0.00;;;17.90;99.90;;;;;;5077238;28;20061;-82
2022/10/24 12:08:30;;;;;;;1.75;0.43;;;17.80;99.90;;;;;;5060506;28;20044;-82
2022/10/24 12:11:30;;;;;;;0.25;0.25;;;17.80;99.90;;;;;;5077344;28;20130;-83
2022/10/24 12:14:08;;;;;;;0.00;0.00;;;17.70;99.90;;;;;;4961926;28;20124;-83
2022/10/24 12:16:47;;;;;;;0.00;0.00;;;17.70;99.90;;;;;;4961715;28;20089;-83
2022/10/24 12:19:16;;;;;;;0.00;0.00;;;17.60;99.90;;;;;;4978250;28;20054;-83
2022/10/24 12:21:55;;;;;;;0.05;0.00;;;17.60;99.90;;;;;;4978295;28;20490;-83
2022/10/24 12:24:29;;;;;;;0.00;0.00;;;17.50;99.90;;;;;;4994488;28;20094;-83
2022/10/24 12:27:03;;;;;;;0.00;0.00;;;17.40;99.90;;;;;;4962096;28;20066;-82
2022/10/24 12:29:34;;;;;;;0.00;0.00;;;17.40;99.90;;;;;;4978420;28;20443;-82
2022/10/24 12:32:39;;;;;;;0.00;0.00;;;17.30;99.90;;;;;;4962442;28;20058;-83
2022/10/24 12:35:32;;;;;;;0.00;0.00;;;17.40;99.90;;;;;;4977765;28;20430;-83
2022/10/24 12:38:00;;;;;;;0.00;0.00;;;17.30;99.90;;;;;;4961847;28;20153;-83
2022/10/24 12:40:44;;;;;;;0.00;0.00;;;17.30;99.90;;;;;;4961742;28;20133;-82
2022/10/24 12:43:38;;;;;;;0.00;0.00;;;17.20;99.90;;;;;;4961698;28;20046;-83
2022/10/24 12:46:13;;;;;;;0.00;0.00;;;17.20;99.90;;;;;;4961370;28;20046;-83
2022/10/24 12:48:55;;;;;;;0.00;0.00;;;17.20;99.90;;;;;;4977093;28;20101;-83
2022/10/24 12:51:28;;;;;;;0.22;0.22;;;17.20;99.90;;;;;;5047824;28;20114;-82
2022/10/24 12:54:13;;;;;;;0.00;0.00;;;17.30;99.90;;;;;;5094095;28;20097;-82
2022/10/24 12:56:48;;;;;;;0.00;0.00;;;17.30;99.90;;;;;;5077540;28;20067;-82
2022/10/24 12:59:13;;;;;;;;;;;17.30;99.90;;;;;;5094522;28;20058;-82
2022/10/24 13:01:39;;;;;;;0.00;0.00;;;17.20;99.90;;;;;;5077138;28;20341;-82
2022/10/24 13:04:31;;;;;;;0.00;0.00;;;17.30;99.90;;;;;;5077270;28;20051;-82
2022/10/24 13:07:03;;;;;;;0.00;0.00;;;17.20;99.90;;;;;;5077312;28;20052;-82
2022/10/24 13:09:55;;;;;;;0.20;0.20;;;17.20;99.90;;;;;;5094627;28;20484;-82
2022/10/24 13:13:05;;;;;;;0.20;0.00;;;17.10;99.90;;;;;;5076959;28;20059;-83